createdAt,value
2019-03-29T00:00:43.969Z,6.70
2019-03-29T00:03:15.219Z,7.17
2019-03-29T00:05:46.561Z,7.60
2019-03-29T00:08:17.828Z,6.07
2019-03-29T00:10:49.169Z,8.27
2019-03-29T00:13:23.492Z,7.27
2019-03-29T00:15:55.004Z,8.47
2019-03-29T00:18:26.207Z,7.77
2019-03-29T00:20:57.702Z,7.37
2019-03-29T00:23:29.060Z,7.33
2019-03-29T00:26:00.390Z,8.77
2019-03-29T00:28:31.640Z,9.50
2019-03-29T00:31:04.983Z,9.47
2019-03-29T00:33:36.226Z,8.33
2019-03-29T00:36:07.548Z,9.33
2019-03-29T00:38:38.956Z,8.23
2019-03-29T00:41:10.248Z,8.70
2019-03-29T00:43:41.498Z,10.47
2019-03-29T00:46:12.849Z,7.60
2019-03-29T00:48:44.120Z,8.13
2019-03-29T00:51:15.513Z,8.17
2019-03-29T00:53:46.888Z,9.00
2019-03-29T00:56:18.716Z,8.80
2019-03-29T00:58:52.314Z,10.03
2019-03-29T01:01:23.556Z,9.30
2019-03-29T01:03:54.831Z,12.93
2019-03-29T01:06:26.152Z,9.63
2019-03-29T01:08:57.539Z,9.37
2019-03-29T01:11:31.112Z,10.47
2019-03-29T01:14:02.406Z,10.93
2019-03-29T01:16:33.938Z,11.60
2019-03-29T01:19:05.215Z,10.90
2019-03-29T01:21:36.442Z,12.30
2019-03-29T01:24:07.823Z,13.83
2019-03-29T01:26:39.079Z,13.13
2019-03-29T01:29:10.328Z,12.67
2019-03-29T01:31:41.576Z,13.13
2019-03-29T01:34:12.823Z,11.70
2019-03-29T01:36:44.097Z,13.27
2019-03-29T01:39:15.368Z,14.77
2019-03-29T01:41:46.870Z,12.10
2019-03-29T01:44:18.293Z,13.37
2019-03-29T01:46:49.853Z,11.80
2019-03-29T01:49:21.101Z,14.23
2019-03-29T01:51:53.297Z,12.80
2019-03-29T01:54:25.191Z,12.93
2019-03-29T01:56:56.391Z,10.90
2019-03-29T01:59:27.779Z,11.07
2019-03-29T02:01:59.243Z,12.70
2019-03-29T02:04:30.576Z,12.27
2019-03-29T02:07:01.798Z,12.97
2019-03-29T02:09:33.056Z,16.17
2019-03-29T02:12:04.367Z,21.77
2019-03-29T02:14:35.716Z,16.57
2019-03-29T02:17:07.060Z,15.00
2019-03-29T02:19:38.306Z,15.93
2019-03-29T02:22:09.585Z,12.50
2019-03-29T02:24:41.820Z,17.73
2019-03-29T02:27:13.823Z,13.60
2019-03-29T02:29:45.142Z,13.00
2019-03-29T02:32:16.492Z,12.97
2019-03-29T02:34:47.810Z,12.30
2019-03-29T02:37:19.273Z,10.90
2019-03-29T02:39:50.730Z,11.53
2019-03-29T02:42:22.012Z,10.90
2019-03-29T02:44:53.563Z,10.17
2019-03-29T02:47:24.849Z,9.60
2019-03-29T02:49:56.269Z,10.90
2019-03-29T02:52:27.637Z,12.87
2019-03-29T02:54:59.142Z,11.67
2019-03-29T02:57:30.354Z,12.37
2019-03-29T03:00:01.625Z,9.73
2019-03-29T03:02:33.894Z,11.43
2019-03-29T03:05:05.300Z,10.73
2019-03-29T03:07:36.577Z,11.70
2019-03-29T03:10:10.018Z,11.27
2019-03-29T03:12:41.315Z,13.33
2019-03-29T03:15:13.285Z,12.67
2019-03-29T03:17:44.545Z,13.40
2019-03-29T03:20:17.123Z,11.77
2019-03-29T03:22:48.436Z,13.77
2019-03-29T03:25:19.660Z,13.17
2019-03-29T03:27:52.487Z,12.43
2019-03-29T03:30:23.838Z,12.33
2019-03-29T03:32:55.110Z,11.93
2019-03-29T03:35:26.435Z,12.87
2019-03-29T03:37:59.489Z,12.03
2019-03-29T03:40:30.780Z,12.97
2019-03-29T03:43:03.475Z,13.03
2019-03-29T03:45:34.690Z,14.43
2019-03-29T03:48:06.292Z,12.93
2019-03-29T03:50:43.264Z,14.47
2019-03-29T03:53:15.127Z,14.70
2019-03-29T03:55:51.400Z,14.53
2019-03-29T03:58:24.565Z,14.03
2019-03-29T04:00:59.867Z,15.07
2019-03-29T04:03:31.131Z,21.37
2019-03-29T04:06:02.428Z,24.27
2019-03-29T04:08:33.722Z,28.23
2019-03-29T04:11:05.021Z,27.23
2019-03-29T04:13:36.228Z,28.03
2019-03-29T04:16:07.483Z,33.33
2019-03-29T04:18:38.755Z,34.13
2019-03-29T04:21:10.096Z,29.87
2019-03-29T04:23:41.695Z,24.57
2019-03-29T04:26:12.983Z,23.20
2019-03-29T04:28:44.232Z,22.57
2019-03-29T04:31:15.515Z,25.60
2019-03-29T04:33:46.737Z,22.43
2019-03-29T04:36:18.177Z,27.47
2019-03-29T04:38:49.599Z,26.17
2019-03-29T04:41:20.863Z,31.00
2019-03-29T04:43:52.079Z,27.83
2019-03-29T04:46:23.382Z,31.57
2019-03-29T04:48:54.640Z,27.83
2019-03-29T04:51:26.118Z,28.53
2019-03-29T04:53:57.416Z,20.90
2019-03-29T04:56:28.674Z,19.60
2019-03-29T04:58:59.872Z,18.33
2019-03-29T05:01:31.143Z,19.20
2019-03-29T05:04:02.367Z,19.47
2019-03-29T05:06:33.619Z,19.00
2019-03-29T05:09:07.753Z,17.30
2019-03-29T05:11:39.128Z,17.77
2019-03-29T05:14:10.485Z,17.60
2019-03-29T05:16:41.772Z,18.53
2019-03-29T05:19:13.112Z,16.50
2019-03-29T05:21:44.803Z,16.07
2019-03-29T05:24:19.117Z,17.80
2019-03-29T05:26:50.519Z,19.30
2019-03-29T05:29:21.738Z,19.83
2019-03-29T05:31:53.738Z,16.07
2019-03-29T05:34:25.051Z,19.17
2019-03-29T05:36:58.410Z,16.53
2019-03-29T05:39:29.326Z,19.93
2019-03-29T05:42:00.686Z,22.30
2019-03-29T05:44:31.933Z,21.27
2019-03-29T05:47:03.159Z,23.10
2019-03-29T05:49:34.388Z,24.10
2019-03-29T05:52:05.673Z,26.67
2019-03-29T05:54:37.070Z,28.70
2019-03-29T05:57:08.438Z,36.67
2019-03-29T05:59:39.820Z,37.77
2019-03-29T06:02:11.166Z,43.23
2019-03-29T06:04:42.495Z,47.63
2019-03-29T06:07:13.912Z,55.60
2019-03-29T06:09:45.472Z,51.73
2019-03-29T06:12:16.673Z,53.17
2019-03-29T06:14:48.066Z,58.30
2019-03-29T06:17:21.569Z,66.67
2019-03-29T06:19:52.862Z,62.77
2019-03-29T06:22:25.308Z,75.67
2019-03-29T06:24:59.516Z,81.00
2019-03-29T06:27:30.768Z,109.13
2019-03-29T06:30:03.451Z,131.20
2019-03-29T06:32:37.248Z,143.17
2019-03-29T06:38:01.525Z,165.00
2019-03-29T06:40:32.918Z,205.67
2019-03-29T06:43:05.466Z,206.23
2019-03-29T06:45:47.722Z,229.97
2019-03-29T06:48:10.816Z,229.37
2019-03-29T06:50:42.257Z,238.43
2019-03-29T06:53:13.541Z,235.13
2019-03-29T06:55:44.839Z,236.63
2019-03-29T06:58:16.176Z,244.83
2019-03-29T07:00:47.884Z,260.10
2019-03-29T07:03:20.217Z,254.57
2019-03-29T07:05:51.588Z,240.47
2019-03-29T07:08:24.764Z,245.60
2019-03-29T07:10:56.006Z,216.47
2019-03-29T07:13:29.871Z,202.47
2019-03-29T07:16:02.433Z,181.57
2019-03-29T07:18:34.733Z,162.33
2019-03-29T07:21:06.014Z,143.70
2019-03-29T07:23:37.662Z,109.63
2019-03-29T07:26:08.977Z,87.77
2019-03-29T07:28:40.644Z,70.63
2019-03-29T07:31:12.369Z,61.60
2019-03-29T07:33:43.677Z,52.87
2019-03-29T07:36:14.956Z,49.00
2019-03-29T07:38:46.360Z,43.93
2019-03-29T07:41:31.080Z,37.70
2019-03-29T07:43:50.798Z,36.40
2019-03-29T07:46:22.039Z,32.67
2019-03-29T07:48:53.303Z,29.17
2019-03-29T07:51:24.595Z,28.77
2019-03-29T07:53:55.822Z,26.23
2019-03-29T07:56:27.082Z,25.53
2019-03-29T07:58:58.423Z,28.77
2019-03-29T08:01:32.378Z,25.33
2019-03-29T08:04:03.338Z,24.90
2019-03-29T08:06:34.586Z,22.73
2019-03-29T08:09:21.377Z,25.00
2019-03-29T08:11:46.435Z,21.47
2019-03-29T08:14:15.017Z,22.97
2019-03-29T08:16:47.720Z,22.90
2019-03-29T08:19:19.122Z,21.97
2019-03-29T08:21:51.495Z,19.83
2019-03-29T08:24:23.709Z,19.37
2019-03-29T08:26:58.340Z,17.23
2019-03-29T08:29:31.336Z,17.03
2019-03-29T08:32:03.536Z,16.23
2019-03-29T08:34:36.008Z,15.60
2019-03-29T08:37:07.539Z,18.07
2019-03-29T08:39:40.184Z,16.60
2019-03-29T08:42:11.466Z,16.93
2019-03-29T08:44:42.795Z,16.07
2019-03-29T08:47:14.083Z,15.03
2019-03-29T08:49:45.358Z,14.97
2019-03-29T08:52:16.841Z,15.67
2019-03-29T08:54:51.056Z,16.17
2019-03-29T08:57:21.100Z,16.17
2019-03-29T08:59:52.374Z,15.00
2019-03-29T09:02:25.252Z,15.43
2019-03-29T09:04:56.945Z,14.07
2019-03-29T09:07:28.424Z,15.30
2019-03-29T09:09:59.723Z,13.33
2019-03-29T09:12:31.018Z,12.63
2019-03-29T09:15:04.052Z,13.53
2019-03-29T09:17:35.457Z,14.10
2019-03-29T09:20:10.425Z,12.60
2019-03-29T09:22:40.145Z,15.57
2019-03-29T09:25:11.486Z,11.70
2019-03-29T09:27:43.472Z,13.93
2019-03-29T09:34:02.359Z,11.47
2019-03-29T09:39:45.292Z,11.47
2019-03-29T09:46:04.728Z,9.33
2019-03-29T09:56:37.490Z,8.63
2019-03-29T10:02:57.057Z,8.47
2019-03-29T10:09:18.513Z,8.60
2019-03-29T10:15:38.138Z,9.13
2019-03-29T10:21:56.997Z,9.13
2019-03-29T10:28:28.636Z,11.17
2019-03-29T10:34:48.572Z,8.13
2019-03-29T10:41:07.525Z,8.27
2019-03-29T10:47:42.389Z,10.13
2019-03-29T10:57:49.203Z,8.73
2019-03-29T11:04:20.628Z,7.83
2019-03-29T11:10:40.619Z,7.70
2019-03-29T11:17:00.170Z,8.00
2019-03-29T11:23:19.430Z,6.80
2019-03-29T11:29:50.876Z,8.20
2019-03-29T11:36:10.558Z,9.13
2019-03-29T11:42:29.461Z,8.33
2019-03-29T11:58:53.843Z,8.20
2019-03-29T12:05:13.069Z,8.40
2019-03-29T12:11:31.611Z,7.80
2019-03-29T12:17:51.225Z,8.23
2019-03-29T12:21:38.935Z,8.00
2019-03-29T12:24:12.516Z,7.20
2019-03-29T12:26:43.780Z,6.30
2019-03-29T12:29:15.049Z,6.63
2019-03-29T12:31:48.258Z,6.60
2019-03-29T12:34:19.581Z,6.37
2019-03-29T12:36:50.931Z,6.50
2019-03-29T12:39:22.172Z,7.60
2019-03-29T12:41:53.406Z,6.80
2019-03-29T12:44:24.722Z,7.63
2019-03-29T12:46:56.140Z,7.30
2019-03-29T12:49:27.386Z,6.83
2019-03-29T12:51:58.783Z,7.23
2019-03-29T12:54:30.174Z,6.50
2019-03-29T12:57:01.708Z,7.43
2019-03-29T12:59:33.193Z,9.07
2019-03-29T13:02:05.148Z,7.90
2019-03-29T13:04:36.354Z,8.13
2019-03-29T13:07:07.724Z,7.50
2019-03-29T13:09:39.899Z,7.50
2019-03-29T13:12:11.369Z,7.00
2019-03-29T13:14:42.611Z,7.03
2019-03-29T13:17:14.149Z,7.23
2019-03-29T13:19:45.913Z,7.50
2019-03-29T13:22:17.350Z,6.83
2019-03-29T13:24:48.724Z,7.67
2019-03-29T13:27:20.118Z,6.70
2019-03-29T13:29:51.425Z,6.80
2019-03-29T13:32:22.713Z,7.57
2019-03-29T13:34:53.991Z,7.80
2019-03-29T13:37:26.355Z,7.57
2019-03-29T13:39:57.656Z,7.23
2019-03-29T13:42:29.412Z,7.87
2019-03-29T13:45:00.686Z,7.60
2019-03-29T13:47:32.304Z,7.53
2019-03-29T13:50:03.541Z,8.63
2019-03-29T13:52:34.777Z,7.40
2019-03-29T13:55:06.796Z,7.43
2019-03-29T13:57:38.289Z,7.20
2019-03-29T14:00:12.338Z,7.47
2019-03-29T14:02:43.608Z,7.87
2019-03-29T14:05:15.362Z,7.77
2019-03-29T14:07:46.757Z,7.47
2019-03-29T14:10:18.069Z,7.70
2019-03-29T14:12:50.523Z,7.60
2019-03-29T14:15:22.045Z,6.83
2019-03-29T14:17:53.669Z,7.47
2019-03-29T14:20:36.079Z,6.30
2019-03-29T14:23:07.472Z,7.70
2019-03-29T14:25:38.750Z,7.30
2019-03-29T14:28:10.155Z,6.67
2019-03-29T14:30:41.389Z,8.00
2019-03-29T14:33:14.202Z,7.83
2019-03-29T14:35:46.239Z,7.93
2019-03-29T14:38:18.524Z,9.43
2019-03-29T14:40:50.986Z,9.67
2019-03-29T14:43:22.355Z,9.53
2019-03-29T14:45:54.367Z,9.70
2019-03-29T14:48:25.661Z,9.60
2019-03-29T14:50:56.907Z,8.03
2019-03-29T14:53:28.355Z,7.07
2019-03-29T14:55:59.625Z,7.23
2019-03-29T14:58:33.004Z,9.80
2019-03-29T15:01:07.258Z,8.13
2019-03-29T15:03:38.521Z,8.80
2019-03-29T15:06:09.836Z,7.30
2019-03-29T15:08:41.344Z,7.83
2019-03-29T15:11:22.023Z,8.33
2019-03-29T15:13:45.660Z,7.90
2019-03-29T15:16:16.886Z,7.20
2019-03-29T15:18:48.334Z,7.57
2019-03-29T15:21:19.626Z,7.67
2019-03-29T15:23:50.858Z,7.90
2019-03-29T15:26:22.140Z,9.93
2019-03-29T15:28:54.863Z,9.70
2019-03-29T15:31:26.169Z,9.93
2019-03-29T15:33:57.507Z,8.03
2019-03-29T15:36:28.861Z,7.53
2019-03-29T15:39:00.229Z,7.57
2019-03-29T15:41:31.482Z,8.17
2019-03-29T15:44:02.725Z,8.07
2019-03-29T15:46:33.998Z,8.63
2019-03-29T15:49:05.566Z,8.87
2019-03-29T15:51:37.027Z,7.80
2019-03-29T15:54:08.903Z,8.27
2019-03-29T15:56:42.319Z,10.20
2019-03-29T15:59:13.681Z,10.00
2019-03-29T16:01:44.995Z,9.00
2019-03-29T16:04:16.274Z,8.13
2019-03-29T16:06:47.535Z,8.47
2019-03-29T16:09:24.702Z,8.97
2019-03-29T16:11:56.079Z,8.43
2019-03-29T16:14:27.329Z,8.70
2019-03-29T16:16:58.560Z,8.30
2019-03-29T16:19:29.853Z,8.47
2019-03-29T16:22:01.123Z,8.00
2019-03-29T16:24:32.403Z,8.23
2019-03-29T16:27:03.725Z,8.20
2019-03-29T16:29:35.000Z,7.83
2019-03-29T16:32:06.282Z,9.40
2019-03-29T16:34:37.592Z,10.03
2019-03-29T16:37:08.982Z,9.27
2019-03-29T16:39:42.792Z,8.20
2019-03-29T16:42:14.056Z,7.73
2019-03-29T16:44:45.440Z,8.53
2019-03-29T16:47:16.970Z,8.47
2019-03-29T16:49:48.256Z,9.47
2019-03-29T16:52:19.558Z,9.37
2019-03-29T16:54:50.898Z,9.53
2019-03-29T16:57:22.181Z,10.10
2019-03-29T16:59:53.468Z,9.13
2019-03-29T17:02:24.891Z,8.43
2019-03-29T17:04:56.186Z,9.53
2019-03-29T17:07:27.531Z,9.90
2019-03-29T17:09:58.802Z,9.77
2019-03-29T17:12:30.144Z,11.00
2019-03-29T17:15:01.607Z,10.00
2019-03-29T17:17:32.851Z,14.30
2019-03-29T17:20:04.610Z,8.57
2019-03-29T17:22:36.406Z,11.93
2019-03-29T17:25:09.010Z,11.43
2019-03-29T17:27:40.282Z,9.70
2019-03-29T17:30:14.391Z,9.77
2019-03-29T17:32:45.671Z,10.70
2019-03-29T17:35:17.498Z,9.43
2019-03-29T17:37:49.015Z,9.33
2019-03-29T17:40:20.471Z,10.83
2019-03-29T17:42:52.214Z,9.57
2019-03-29T17:45:23.499Z,12.17
2019-03-29T17:47:54.786Z,9.83
2019-03-29T17:50:26.070Z,9.63
2019-03-29T17:52:58.526Z,13.20
2019-03-29T17:55:31.793Z,13.73
2019-03-29T17:58:02.864Z,12.27
2019-03-29T18:00:34.171Z,11.63
2019-03-29T18:03:05.461Z,14.63
2019-03-29T18:05:38.016Z,13.37
2019-03-29T18:08:12.157Z,14.93
2019-03-29T18:10:43.426Z,14.30
2019-03-29T18:13:57.602Z,15.47
2019-03-29T18:16:30.955Z,12.77
2019-03-29T18:19:02.704Z,16.63
2019-03-29T18:21:43.415Z,15.67
2019-03-29T18:24:14.887Z,16.77
2019-03-29T18:26:46.545Z,17.57
2019-03-29T18:29:18.028Z,17.43
2019-03-29T18:31:49.891Z,16.87
2019-03-29T18:34:21.541Z,17.60
2019-03-29T18:36:58.273Z,17.60
2019-03-29T18:39:32.046Z,15.73
2019-03-29T18:42:05.315Z,17.00
2019-03-29T18:44:37.683Z,17.77
2019-03-29T18:47:09.406Z,15.00
2019-03-29T18:49:44.646Z,15.43
2019-03-29T18:52:18.417Z,15.83
2019-03-29T18:54:52.178Z,15.40
2019-03-29T18:57:24.284Z,19.10
2019-03-29T18:59:58.244Z,16.20
2019-03-29T19:02:37.758Z,15.00
2019-03-29T19:05:15.357Z,17.60
2019-03-29T19:07:47.144Z,14.27
2019-03-29T19:10:19.300Z,16.30
2019-03-29T19:12:53.368Z,17.63
2019-03-29T19:15:25.994Z,17.17
2019-03-29T19:17:59.036Z,18.27
2019-03-29T19:20:59.624Z,18.07
2019-03-29T19:23:31.159Z,14.83
2019-03-29T19:26:02.599Z,17.27
2019-03-29T19:28:35.517Z,16.23
2019-03-29T19:31:11.167Z,15.03
2019-03-29T19:33:48.203Z,13.93
2019-03-29T19:36:19.962Z,17.53
2019-03-29T19:38:52.276Z,13.00
2019-03-29T19:41:24.484Z,14.83
2019-03-29T19:43:57.603Z,16.87
2019-03-29T19:46:29.605Z,17.73
2019-03-29T19:49:01.479Z,13.67
2019-03-29T19:51:39.231Z,18.53
2019-03-29T19:54:12.523Z,14.23
2019-03-29T19:56:44.560Z,12.10
2019-03-29T19:59:16.697Z,11.83
2019-03-29T20:01:50.760Z,13.07
2019-03-29T20:04:24.403Z,15.20
2019-03-29T20:06:58.504Z,17.10
2019-03-29T20:09:30.703Z,16.87
2019-03-29T20:12:02.267Z,11.83
2019-03-29T20:14:34.094Z,13.93
2019-03-29T20:17:07.502Z,12.80
2019-03-29T20:19:40.713Z,14.33
2019-03-29T20:22:16.314Z,13.23
2019-03-29T20:24:55.106Z,14.70
2019-03-29T20:27:33.360Z,16.27
2019-03-29T20:30:07.717Z,17.23
2019-03-29T20:32:41.516Z,16.27
2019-03-29T20:35:18.674Z,15.47
2019-03-29T20:37:57.996Z,17.97
2019-03-29T20:40:32.219Z,21.73
2019-03-29T20:43:14.533Z,15.73
2019-03-29T20:49:50.881Z,15.30
2019-03-29T20:52:38.148Z,15.30
2019-03-29T20:55:10.385Z,19.07
2019-03-29T21:00:51.190Z,16.40
2019-03-29T21:03:24.338Z,17.90
2019-03-29T21:05:56.378Z,18.93
2019-03-29T21:08:29.679Z,18.03
2019-03-29T21:11:03.098Z,17.50
2019-03-29T21:13:34.661Z,18.03
2019-03-29T21:16:09.522Z,15.83
2019-03-29T21:18:41.305Z,14.17
2019-03-29T21:21:12.762Z,17.73
2019-03-29T21:23:47.110Z,15.80
2019-03-29T21:26:22.451Z,17.93
2019-03-29T21:28:54.860Z,14.30
2019-03-29T21:31:27.282Z,16.67
2019-03-29T21:33:59.854Z,13.50
2019-03-29T21:36:31.269Z,16.40
2019-03-29T21:39:06.748Z,16.77
2019-03-29T21:41:42.880Z,15.57
2019-03-29T21:44:14.467Z,19.10
2019-03-29T21:46:47.275Z,23.03
2019-03-29T21:49:18.730Z,29.03
2019-03-29T21:51:50.111Z,20.50
2019-03-29T21:54:21.730Z,20.27
2019-03-29T21:56:53.170Z,16.03
2019-03-29T21:59:25.216Z,15.57
2019-03-29T22:01:56.877Z,14.97
2019-03-29T22:04:29.037Z,15.23
2019-03-29T22:07:02.107Z,18.67
2019-03-29T22:09:37.137Z,15.43
2019-03-29T22:12:06.489Z,15.67
2019-03-29T22:14:38.948Z,16.07
2019-03-29T22:17:11.630Z,16.20
2019-03-29T22:19:42.905Z,13.60
2019-03-29T22:22:14.230Z,14.50
2019-03-29T22:24:45.483Z,15.07
2019-03-29T22:27:16.801Z,13.70
2019-03-29T22:29:48.028Z,12.90
2019-03-29T22:32:19.443Z,16.03
2019-03-29T22:34:50.719Z,14.70
2019-03-29T22:37:22.022Z,14.90
2019-03-29T22:39:53.257Z,15.27
2019-03-29T22:42:24.889Z,15.37
2019-03-29T22:44:56.581Z,14.40
2019-03-29T22:47:27.966Z,15.07
2019-03-29T22:49:59.317Z,15.90
2019-03-29T22:52:30.675Z,13.93
2019-03-29T22:55:01.956Z,13.47
2019-03-29T22:57:34.297Z,16.23
2019-03-29T23:00:11.320Z,14.73
2019-03-29T23:02:44.309Z,15.93
2019-03-29T23:05:15.583Z,16.50
2019-03-29T23:07:47.217Z,20.17
2019-03-29T23:10:18.669Z,15.97
2019-03-29T23:12:49.942Z,16.57
2019-03-29T23:15:21.187Z,16.67
2019-03-29T23:17:52.457Z,14.57
2019-03-29T23:20:24.763Z,15.07
2019-03-29T23:22:56.155Z,16.17
2019-03-29T23:25:30.603Z,13.53
2019-03-29T23:28:02.080Z,17.47
2019-03-29T23:30:33.377Z,15.97
2019-03-29T23:33:04.767Z,16.33
2019-03-29T23:35:36.071Z,16.13
2019-03-29T23:38:07.397Z,16.77
2019-03-29T23:40:38.717Z,17.13
2019-03-29T23:43:09.987Z,15.03
2019-03-29T23:45:41.357Z,15.20
2019-03-29T23:48:12.591Z,18.27
2019-03-29T23:50:43.818Z,16.40
2019-03-29T23:53:15.073Z,16.67
2019-03-29T23:55:46.339Z,15.37
2019-03-29T23:58:17.672Z,14.83
